Time;durP1;ratioP1;P1;durP2;ratioP2;P2;SDS_P1;SDS_P2;PMS_P1;PMS_P2;Temp;Humidity;BMP_temperature;BMP_pressure;BME280_temperature;BME280_humidity;BME280_pressure;Samples;Min_cycle;Max_cycle;Signal;HPM_P1;HPM_P2
2022/05/25 00:01:09;;;;;;;6.88;1.75;;;;;;;;;;5065595;28;20043;-62
2022/05/25 00:03:35;;;;;;;4.45;1.35;;;;;;;;;;5071044;28;20078;-62
2022/05/25 00:06:04;;;;;;;10.48;1.88;;;;;;;;;;5063653;28;20021;-62
2022/05/25 00:08:30;;;;;;;9.15;1.77;;;;;;;;;;5069187;28;20032;-62
2022/05/25 00:10:56;;;;;;;4.45;1.60;;;;;;;;;;5057845;28;20051;-62
2022/05/25 00:13:23;;;;;;;8.68;1.83;;;;;;;;;;5070722;28;20055;-62
2022/05/25 00:15:49;;;;;;;4.75;1.77;;;;;;;;;;5059270;28;20035;-62
2022/05/25 00:18:15;;;;;;;4.18;1.67;;;;;;;;;;5069983;28;20147;-62
2022/05/25 00:20:41;;;;;;;7.43;1.92;;;;;;;;;;5066374;28;20028;-62
2022/05/25 00:23:07;;;;;;;4.97;1.63;;;;;;;;;;5054541;28;20547;-62
2022/05/25 00:25:35;;;;;;;8.38;1.67;;;;;;;;;;5053553;28;20521;-62
2022/05/25 00:28:02;;;;;;;5.78;1.88;;;;;;;;;;5064243;28;20032;-61
2022/05/25 00:30:29;;;;;;;7.95;1.83;;;;;;;;;;5047831;28;20116;-63
2022/05/25 00:32:56;;;;;;;7.30;1.98;;;;;;;;;;5061455;28;20136;-61
2022/05/25 00:35:22;;;;;;;7.82;1.77;;;;;;;;;;5065444;28;20190;-62
2022/05/25 00:37:48;;;;;;;4.63;1.83;;;;;;;;;;5060359;28;20033;-61
2022/05/25 00:40:17;;;;;;;6.68;2.42;;;;;;;;;;5057053;28;20371;-63
2022/05/25 00:42:43;;;;;;;4.68;1.77;;;;;;;;;;5061219;28;20029;-61
2022/05/25 00:45:09;;;;;;;4.65;2.03;;;;;;;;;;5050311;28;20299;-61
2022/05/25 00:47:37;;;;;;;4.75;2.22;;;;;;;;;;5062672;28;20115;-62
2022/05/25 00:50:04;;;;;;;6.68;1.98;;;;;;;;;;5069777;28;20481;-61
2022/05/25 00:52:30;;;;;;;3.95;1.83;;;;;;;;;;5063260;28;20122;-61
2022/05/25 00:55:00;;;;;;;7.82;2.22;;;;;;;;;;5050098;28;20025;-61
2022/05/25 00:57:28;;;;;;;6.80;1.73;;;;;;;;;;5061561;28;20111;-61
2022/05/25 01:00:02;;;;;;;6.55;2.35;;;;;;;;;;5050138;28;20111;-61
2022/05/25 01:02:29;;;;;;;3.65;1.60;;;;;;;;;;5055580;28;20430;-61
2022/05/25 01:04:55;;;;;;;8.38;2.10;;;;;;;;;;5069397;28;20387;-61
2022/05/25 01:07:50;;;;;;;3.78;1.90;;;;;;;;;;5059251;28;20044;-61
2022/05/25 01:10:32;;;;;;;7.43;2.20;;;;;;;;;;5036510;28;20052;-61
2022/05/25 01:13:10;;;;;;;3.90;1.77;;;;;;;;;;5061092;28;20032;-61
2022/05/25 01:15:50;;;;;;;4.95;1.80;;;;;;;;;;5049380;28;20732;-61
2022/05/25 01:18:34;;;;;;;5.15;1.95;;;;;;;;;;5056012;28;20048;-61
2022/05/25 01:21:06;;;;;;;4.93;2.40;;;;;;;;;;5069056;28;20123;-62
2022/05/25 01:23:51;;;;;;;4.68;1.80;;;;;;;;;;5056594;28;20025;-61
2022/05/25 01:26:27;;;;;;;5.80;2.15;;;;;;;;;;5069258;28;20036;-61
2022/05/25 01:29:02;;;;;;;3.80;2.10;;;;;;;;;;5056816;28;20012;-61
2022/05/25 01:31:42;;;;;;;4.80;1.98;;;;;;;;;;5069126;28;20119;-61
2022/05/25 01:34:27;;;;;;;3.58;1.85;;;;;;;;;;5062131;28;20024;-61
2022/05/25 01:36:54;;;;;;;4.55;1.85;;;;;;;;;;5069298;28;20028;-61
2022/05/25 01:39:23;;;;;;;4.40;2.60;;;;;;;;;;5054356;28;20024;-61
2022/05/25 01:41:55;;;;;;;5.55;1.98;;;;;;;;;;5068325;28;20056;-61
2022/05/25 01:44:37;;;;;;;3.45;1.80;;;;;;;;;;5061687;28;20479;-61
2022/05/25 01:47:05;;;;;;;3.50;1.75;;;;;;;;;;5055502;28;20040;-61
2022/05/25 01:49:52;;;;;;;4.85;2.40;;;;;;;;;;5068245;28;20023;-61
2022/05/25 01:52:20;;;;;;;4.72;2.10;;;;;;;;;;5069259;28;20039;-61
2022/05/25 01:54:51;;;;;;;5.32;1.70;;;;;;;;;;5065285;28;20021;-62
2022/05/25 01:57:18;;;;;;;5.82;2.20;;;;;;;;;;5055365;28;20068;-62
2022/05/25 01:59:44;;;;;;;3.30;1.50;;;;;;;;;;5057245;28;20029;-61
2022/05/25 02:04:57;;;;;;;4.35;1.80;;;;;;;;;;5063623;28;20085;-62
2022/05/25 02:07:38;;;;;;;5.70;2.25;;;;;;;;;;5052442;28;20132;-61
2022/05/25 02:10:07;;;;;;;5.40;2.13;;;;;;;;;;5063425;28;20111;-61
2022/05/25 02:12:36;;;;;;;3.92;1.90;;;;;;;;;;5049637;28;20092;-61
2022/05/25 02:15:11;;;;;;;6.40;2.10;;;;;;;;;;5062144;28;20047;-61
2022/05/25 02:17:43;;;;;;;3.78;1.75;;;;;;;;;;5062349;28;20032;-61
2022/05/25 02:20:22;;;;;;;6.20;1.98;;;;;;;;;;5056794;28;20036;-61
2022/05/25 02:22:52;;;;;;;3.92;1.80;;;;;;;;;;5069006;28;20115;-62
2022/05/25 02:25:29;;;;;;;4.28;2.00;;;;;;;;;;5057134;28;20104;-62
2022/05/25 02:28:14;;;;;;;4.72;2.40;;;;;;;;;;5049543;28;20035;-62
2022/05/25 02:30:43;;;;;;;5.50;2.05;;;;;;;;;;5062366;28;20386;-62
2022/05/25 02:33:15;;;;;;;4.53;1.75;;;;;;;;;;5052799;28;20497;-62
2022/05/25 02:35:42;;;;;;;5.22;1.85;;;;;;;;;;5054456;28;20565;-62
2022/05/25 02:38:09;;;;;;;4.45;1.80;;;;;;;;;;5072536;28;20143;-61
2022/05/25 02:40:36;;;;;;;4.00;2.05;;;;;;;;;;5062508;28;20553;-62
2022/05/25 02:43:03;;;;;;;3.33;2.28;;;;;;;;;;5071408;28;20024;-62
2022/05/25 02:45:29;;;;;;;3.60;1.90;;;;;;;;;;5068203;28;20035;-62
2022/05/25 02:47:58;;;;;;;5.00;2.42;;;;;;;;;;5057833;28;20044;-62
2022/05/25 02:50:24;;;;;;;3.92;1.90;;;;;;;;;;5059147;28;20119;-62
2022/05/25 02:52:50;;;;;;;4.97;1.98;;;;;;;;;;5071498;28;20115;-62
2022/05/25 02:55:16;;;;;;;5.80;2.15;;;;;;;;;;5069464;28;20124;-62
2022/05/25 02:57:42;;;;;;;3.58;1.90;;;;;;;;;;5063784;28;20070;-61
2022/05/25 03:00:09;;;;;;;4.15;1.88;;;;;;;;;;5070823;28;20127;-62
2022/05/25 03:02:35;;;;;;;3.92;1.95;;;;;;;;;;5060497;28;20032;-62
2022/05/25 03:05:03;;;;;;;4.85;1.90;;;;;;;;;;5071512;28;20042;-61
2022/05/25 03:07:29;;;;;;;4.78;1.95;;;;;;;;;;5061208;28;20142;-61
2022/05/25 03:09:55;;;;;;;5.88;2.38;;;;;;;;;;5072168;28;20159;-61
2022/05/25 03:12:21;;;;;;;6.32;2.33;;;;;;;;;;5059970;28;20117;-62
2022/05/25 03:14:48;;;;;;;3.80;1.83;;;;;;;;;;5072628;28;20028;-62
2022/05/25 03:17:14;;;;;;;5.78;2.28;;;;;;;;;;5070290;28;20039;-61
2022/05/25 03:19:42;;;;;;;4.50;2.10;;;;;;;;;;5071806;28;20032;-61
2022/05/25 03:22:08;;;;;;;5.82;2.53;;;;;;;;;;5068815;28;20025;-62
2022/05/25 03:24:34;;;;;;;4.13;2.00;;;;;;;;;;5052939;28;20025;-61
2022/05/25 03:27:00;;;;;;;4.30;2.10;;;;;;;;;;5061568;28;20123;-62
2022/05/25 03:29:26;;;;;;;4.20;2.17;;;;;;;;;;5055094;28;20475;-62
2022/05/25 03:31:53;;;;;;;4.75;2.05;;;;;;;;;;5065870;28;20032;-61
2022/05/25 03:34:19;;;;;;;4.28;1.85;;;;;;;;;;5057397;28;20029;-62
2022/05/25 03:36:46;;;;;;;4.25;2.22;;;;;;;;;;5067978;28;20862;-61
2022/05/25 03:39:12;;;;;;;6.10;2.30;;;;;;;;;;5060222;28;20075;-61
2022/05/25 03:41:38;;;;;;;3.38;1.70;;;;;;;;;;5070441;28;20020;-62
2022/05/25 03:44:04;;;;;;;6.40;2.70;;;;;;;;;;5062842;28;20071;-62
2022/05/25 03:46:30;;;;;;;5.00;2.10;;;;;;;;;;5053158;28;20063;-62
2022/05/25 03:48:57;;;;;;;4.43;2.55;;;;;;;;;;5063321;28;20048;-62
2022/05/25 03:51:23;;;;;;;4.55;2.30;;;;;;;;;;5068725;28;20036;-61
2022/05/25 03:53:52;;;;;;;3.88;1.92;;;;;;;;;;5063361;28;20122;-62
2022/05/25 03:56:18;;;;;;;4.75;2.15;;;;;;;;;;5055992;28;20027;-61
2022/05/25 03:58:44;;;;;;;4.50;1.98;;;;;;;;;;5059114;28;20032;-62
2022/05/25 04:01:10;;;;;;;6.18;2.38;;;;;;;;;;5071941;28;20031;-62
2022/05/25 04:03:36;;;;;;;4.68;2.28;;;;;;;;;;5059537;28;20086;-62
2022/05/25 04:06:02;;;;;;;3.17;2.13;;;;;;;;;;5070159;28;20577;-62
2022/05/25 04:08:28;;;;;;;4.82;2.00;;;;;;;;;;5067082;28;20131;-61
2022/05/25 04:10:54;;;;;;;4.72;2.10;;;;;;;;;;5071249;28;20108;-62
2022/05/25 04:13:22;;;;;;;5.68;2.10;;;;;;;;;;5063980;28;20124;-62
2022/05/25 04:15:48;;;;;;;6.30;2.20;;;;;;;;;;5067027;28;20078;-62
2022/05/25 04:18:14;;;;;;;3.70;1.98;;;;;;;;;;5066047;28;20063;-62
2022/05/25 04:20:40;;;;;;;4.50;2.00;;;;;;;;;;5058324;28;20033;-61
2022/05/25 04:23:09;;;;;;;6.72;2.13;;;;;;;;;;5053894;28;20486;-62
2022/05/25 04:25:35;;;;;;;4.63;2.67;;;;;;;;;;5062714;28;20397;-62
2022/05/25 04:28:01;;;;;;;5.80;2.17;;;;;;;;;;5067191;28;20033;-62
2022/05/25 04:30:29;;;;;;;5.57;2.20;;;;;;;;;;5070367;28;20056;-62
2022/05/25 04:32:55;;;;;;;2.97;1.70;;;;;;;;;;5069910;28;20533;-61
2022/05/25 04:35:22;;;;;;;3.95;2.10;;;;;;;;;;5061514;28;20128;-61
2022/05/25 04:37:55;;;;;;;6.03;2.17;;;;;;;;;;5069727;28;20551;-62
2022/05/25 04:40:32;;;;;;;6.00;2.33;;;;;;;;;;5062176;28;20510;-62
2022/05/25 04:43:01;;;;;;;5.68;2.33;;;;;;;;;;5051080;28;20471;-62
2022/05/25 04:45:27;;;;;;;4.32;2.05;;;;;;;;;;5063765;28;20513;-62
2022/05/25 04:47:57;;;;;;;5.30;1.83;;;;;;;;;;5059494;28;20028;-62
2022/05/25 04:50:23;;;;;;;;;;;;;;;;;;5065104;28;20054;-61
2022/05/25 04:52:50;;;;;;;6.55;2.38;;;;;;;;;;5071052;28;19935;-61
2022/05/25 04:58:01;;;;;;;5.10;2.50;;;;;;;;;;5069666;28;20078;-62
2022/05/25 05:00:27;;;;;;;4.72;2.10;;;;;;;;;;5058507;28;20537;-61
2022/05/25 05:02:54;;;;;;;5.43;2.33;;;;;;;;;;5069363;28;20111;-62
2022/05/25 05:05:20;;;;;;;3.80;2.03;;;;;;;;;;5068904;28;20107;-62
2022/05/25 05:07:46;;;;;;;4.85;1.80;;;;;;;;;;5070782;28;20029;-62
2022/05/25 05:10:12;;;;;;;4.45;2.10;;;;;;;;;;5062559;28;20542;-62
2022/05/25 05:12:39;;;;;;;5.75;2.33;;;;;;;;;;5064353;28;20028;-62
2022/05/25 05:15:05;;;;;;;4.60;1.95;;;;;;;;;;5061450;28;20037;-62
2022/05/25 05:17:31;;;;;;;7.70;2.15;;;;;;;;;;5052196;28;20112;-61
2022/05/25 05:19:57;;;;;;;11.23;4.35;;;;;;;;;;5055955;28;20028;-62
2022/05/25 05:22:23;;;;;;;25.52;7.97;;;;;;;;;;5059996;28;20078;-63
2022/05/25 05:24:49;;;;;;;19.65;8.15;;;;;;;;;;5052835;28;20020;-62
2022/05/25 05:27:16;;;;;;;28.08;9.68;;;;;;;;;;5058282;28;20589;-62
2022/05/25 05:29:42;;;;;;;17.60;9.38;;;;;;;;;;5057837;28;20071;-62
2022/05/25 05:32:10;;;;;;;19.83;9.23;;;;;;;;;;5054291;28;20474;-61
2022/05/25 05:34:36;;;;;;;15.10;7.78;;;;;;;;;;5057629;28;20429;-62
2022/05/25 05:37:05;;;;;;;15.07;8.45;;;;;;;;;;5062314;28;20103;-61
2022/05/25 05:39:34;;;;;;;11.93;8.18;;;;;;;;;;5052594;28;20115;-61
2022/05/25 05:42:05;;;;;;;12.15;7.90;;;;;;;;;;5065202;28;20033;-61
2022/05/25 05:44:33;;;;;;;10.93;8.02;;;;;;;;;;5069950;28;20104;-63
2022/05/25 05:47:00;;;;;;;13.80;7.55;;;;;;;;;;5065431;28;20079;-63
2022/05/25 05:49:26;;;;;;;12.63;8.27;;;;;;;;;;5050015;28;20539;-62
2022/05/25 05:51:53;;;;;;;13.73;8.30;;;;;;;;;;5059374;28;20199;-62
2022/05/25 05:54:19;;;;;;;11.18;7.78;;;;;;;;;;5061923;28;20056;-62
2022/05/25 05:56:45;;;;;;;11.57;7.90;;;;;;;;;;5065864;28;20060;-62
2022/05/25 05:59:11;;;;;;;11.88;7.43;;;;;;;;;;5054288;28;20414;-62
2022/05/25 06:01:38;;;;;;;14.70;7.88;;;;;;;;;;5053804;28;20149;-62
2022/05/25 06:04:05;;;;;;;13.02;8.20;;;;;;;;;;5058004;28;20032;-62
2022/05/25 06:06:31;;;;;;;19.67;8.00;;;;;;;;;;5063420;28;20078;-62
2022/05/25 06:08:57;;;;;;;15.15;8.35;;;;;;;;;;5065426;28;20546;-62
2022/05/25 06:11:23;;;;;;;14.40;7.68;;;;;;;;;;5065210;28;20546;-62
2022/05/25 06:13:50;;;;;;;14.65;7.97;;;;;;;;;;5071055;28;20032;-62
2022/05/25 06:21:46;;;;;;;10.65;6.85;;;;;;;;;;5064678;28;20489;-62
2022/05/25 06:24:12;;;;;;;16.35;7.90;;;;;;;;;;5066493;28;20078;-62
2022/05/25 06:26:38;;;;;;;21.77;8.23;;;;;;;;;;5059089;28;20033;-62
2022/05/25 06:29:04;;;;;;;18.23;7.20;;;;;;;;;;5065505;28;20023;-62
2022/05/25 06:31:31;;;;;;;14.43;8.73;;;;;;;;;;5069048;28;20031;-61
2022/05/25 06:33:58;;;;;;;17.05;7.78;;;;;;;;;;5066184;28;20116;-62
2022/05/25 06:36:26;;;;;;;14.35;7.38;;;;;;;;;;5064854;28;20131;-62
2022/05/25 06:38:52;;;;;;;13.23;7.78;;;;;;;;;;5063318;28;20029;-61
2022/05/25 06:41:18;;;;;;;11.35;7.43;;;;;;;;;;5071043;28;20112;-61
2022/05/25 06:43:45;;;;;;;11.90;7.47;;;;;;;;;;5069150;28;20024;-61
2022/05/25 06:46:12;;;;;;;28.95;8.75;;;;;;;;;;5070819;28;20102;-61
2022/05/25 06:48:38;;;;;;;22.10;8.18;;;;;;;;;;5061365;28;20100;-61
2022/05/25 06:51:14;;;;;;;19.00;7.38;;;;;;;;;;5061465;28;20036;-61
2022/05/25 06:53:40;;;;;;;19.83;7.97;;;;;;;;;;5062058;28;20112;-60
2022/05/25 06:56:06;;;;;;;13.27;7.30;;;;;;;;;;5049145;28;20112;-61
2022/05/25 06:58:33;;;;;;;13.10;7.18;;;;;;;;;;5064596;28;20105;-61
2022/05/25 07:00:59;;;;;;;13.43;6.55;;;;;;;;;;5061568;28;20147;-61
2022/05/25 07:03:25;;;;;;;12.63;7.05;;;;;;;;;;5063693;28;20594;-61
2022/05/25 07:05:52;;;;;;;13.40;7.40;;;;;;;;;;5062136;28;20554;-61
2022/05/25 07:08:18;;;;;;;14.45;7.15;;;;;;;;;;5063021;28;20064;-61
2022/05/25 07:10:46;;;;;;;13.02;7.07;;;;;;;;;;5066169;28;20029;-61
2022/05/25 07:13:21;;;;;;;16.58;8.15;;;;;;;;;;5071801;28;20479;-60
2022/05/25 07:15:48;;;;;;;19.95;7.40;;;;;;;;;;5065642;28;20116;-61
2022/05/25 07:18:14;;;;;;;15.27;6.70;;;;;;;;;;5067825;28;20035;-61
2022/05/25 07:20:40;;;;;;;11.38;6.25;;;;;;;;;;5066927;28;20036;-61
2022/05/25 07:23:06;;;;;;;16.58;6.05;;;;;;;;;;5066909;28;20490;-61
2022/05/25 07:25:33;;;;;;;13.70;6.20;;;;;;;;;;5067394;28;20036;-60
2022/05/25 07:27:59;;;;;;;10.30;6.25;;;;;;;;;;5067416;28;20032;-60
2022/05/25 07:30:25;;;;;;;10.27;5.65;;;;;;;;;;5067053;28;20538;-61
2022/05/25 07:32:51;;;;;;;13.25;5.97;;;;;;;;;;5067341;28;20029;-61
2022/05/25 07:35:17;;;;;;;13.95;5.97;;;;;;;;;;5064665;28;20041;-63
2022/05/25 07:37:45;;;;;;;14.15;6.22;;;;;;;;;;5065662;28;20024;-63
2022/05/25 07:40:19;;;;;;;13.45;6.07;;;;;;;;;;5065807;28;20108;-62
2022/05/25 07:42:46;;;;;;;11.95;5.13;;;;;;;;;;5065645;28;20032;-63
2022/05/25 07:45:12;;;;;;;15.50;6.00;;;;;;;;;;5069495;28;20024;-63
2022/05/25 07:47:38;;;;;;;12.65;5.20;;;;;;;;;;5055950;28;20087;-63
2022/05/25 07:50:06;;;;;;;12.68;5.97;;;;;;;;;;5053599;28;20481;-63
2022/05/25 07:52:35;;;;;;;14.65;5.82;;;;;;;;;;5063357;28;20117;-63
2022/05/25 07:55:02;;;;;;;11.63;4.95;;;;;;;;;;5067586;28;20158;-63
2022/05/25 07:57:28;;;;;;;14.48;5.63;;;;;;;;;;5068081;28;20054;-62
2022/05/25 07:59:54;;;;;;;16.67;5.38;;;;;;;;;;5068790;28;20132;-62
2022/05/25 08:08:00;;;;;;;14.15;5.30;;;;;;;;;;5061568;28;20060;-62
2022/05/25 08:10:27;;;;;;;11.48;4.88;;;;;;;;;;5067365;28;20498;-62
2022/05/25 08:12:57;;;;;;;13.00;5.40;;;;;;;;;;5061769;28;20025;-62
2022/05/25 08:15:23;;;;;;;14.23;4.85;;;;;;;;;;5051451;28;20406;-62
2022/05/25 08:17:49;;;;;;;14.23;5.10;;;;;;;;;;5066858;28;20020;-62
2022/05/25 08:20:17;;;;;;;19.15;5.10;;;;;;;;;;5069939;28;20033;-62
2022/05/25 08:22:43;;;;;;;14.82;5.10;;;;;;;;;;5062113;28;20391;-61
2022/05/25 08:25:10;;;;;;;16.55;5.85;;;;;;;;;;5050406;28;20047;-62
2022/05/25 08:27:39;;;;;;;12.93;4.35;;;;;;;;;;5062417;28;20143;-62
2022/05/25 08:30:06;;;;;;;12.27;5.40;;;;;;;;;;5049384;28;20067;-63
2022/05/25 08:32:32;;;;;;;11.38;4.22;;;;;;;;;;5062454;28;20123;-63
2022/05/25 08:34:58;;;;;;;14.68;4.63;;;;;;;;;;5070186;28;20542;-63
2022/05/25 08:37:24;;;;;;;15.65;4.70;;;;;;;;;;5060176;28;20036;-63
2022/05/25 08:39:50;;;;;;;13.05;4.70;;;;;;;;;;5066554;28;20128;-63
2022/05/25 08:42:19;;;;;;;10.05;4.50;;;;;;;;;;5068359;28;20750;-63
2022/05/25 08:44:46;;;;;;;8.93;4.55;;;;;;;;;;5070325;28;20539;-63
2022/05/25 08:47:13;;;;;;;10.52;4.63;;;;;;;;;;5064199;28;20036;-63
2022/05/25 08:49:41;;;;;;;10.65;3.70;;;;;;;;;;5062658;28;20035;-63
2022/05/25 08:52:18;;;;;;;18.10;5.03;;;;;;;;;;5065915;28;20437;-63
2022/05/25 08:54:44;;;;;;;8.55;3.85;;;;;;;;;;5070159;28;20036;-63
2022/05/25 08:57:15;;;;;;;10.35;4.43;;;;;;;;;;5065678;28;20024;-63
2022/05/25 08:59:41;;;;;;;13.10;4.00;;;;;;;;;;5059433;28;20028;-63
2022/05/25 09:02:10;;;;;;;10.27;4.07;;;;;;;;;;5051225;28;20391;-63
2022/05/25 09:04:42;;;;;;;10.30;6.45;;;;;;;;;;5060361;28;20136;-63
2022/05/25 09:07:25;;;;;;;14.52;8.95;;;;;;;;;;5050892;28;20545;-63
2022/05/25 09:09:52;;;;;;;18.15;9.98;;;;;;;;;;5058769;28;20541;-63
2022/05/25 09:12:28;;;;;;;17.25;10.73;;;;;;;;;;5067026;28;20111;-63
2022/05/25 09:15:03;;;;;;;22.40;10.95;;;;;;;;;;5060841;28;20049;-63
2022/05/25 09:17:40;;;;;;;16.48;12.90;;;;;;;;;;5053223;28;20024;-63
2022/05/25 09:20:08;;;;;;;18.85;10.98;;;;;;;;;;5068469;28;20091;-63
2022/05/25 09:22:35;;;;;;;15.30;11.35;;;;;;;;;;5068665;28;20028;-63
2022/05/25 09:25:02;;;;;;;15.70;11.35;;;;;;;;;;5055415;28;20154;-63
2022/05/25 09:27:30;;;;;;;13.55;11.43;;;;;;;;;;5068778;28;20123;-62
2022/05/25 09:29:58;;;;;;;19.70;12.38;;;;;;;;;;5056576;28;20178;-62
2022/05/25 09:32:27;;;;;;;22.08;15.90;;;;;;;;;;5069421;28;20496;-62
2022/05/25 09:34:58;;;;;;;23.75;16.63;;;;;;;;;;5038446;28;20570;-62
2022/05/25 09:37:33;;;;;;;22.00;18.58;;;;;;;;;;5069333;28;20029;-62
2022/05/25 09:40:01;;;;;;;23.80;19.40;;;;;;;;;;5060250;28;20441;-62
2022/05/25 09:42:32;;;;;;;35.17;21.95;;;;;;;;;;5049592;28;20438;-62
2022/05/25 09:45:00;;;;;;;24.52;20.80;;;;;;;;;;5053617;28;20025;-62
2022/05/25 09:47:29;;;;;;;30.83;23.25;;;;;;;;;;5069756;28;20031;-62
2022/05/25 09:49:57;;;;;;;29.23;23.47;;;;;;;;;;5058564;28;20063;-62
2022/05/25 09:52:28;;;;;;;28.80;24.42;;;;;;;;;;5067912;28;20048;-62
2022/05/25 09:55:00;;;;;;;26.35;23.00;;;;;;;;;;5060272;28;20018;-62
2022/05/25 09:57:33;;;;;;;28.88;25.08;;;;;;;;;;5066780;28;20111;-63
2022/05/25 10:00:03;;;;;;;27.90;24.98;;;;;;;;;;5060557;28;20032;-62
2022/05/25 10:02:37;;;;;;;25.90;22.95;;;;;;;;;;5049339;28;20056;-63
2022/05/25 10:05:23;;;;;;;25.80;22.10;;;;;;;;;;5056304;28;20488;-62
2022/05/25 10:08:08;;;;;;;27.52;24.45;;;;;;;;;;5069133;28;20044;-62
2022/05/25 10:10:36;;;;;;;34.38;24.30;;;;;;;;;;5064846;28;20390;-62
2022/05/25 10:13:13;;;;;;;24.45;21.17;;;;;;;;;;5050595;28;20068;-62
2022/05/25 10:15:39;;;;;;;32.78;21.10;;;;;;;;;;5058253;28;20115;-62
2022/05/25 10:18:05;;;;;;;23.55;21.00;;;;;;;;;;5063362;28;20186;-63
2022/05/25 10:20:34;;;;;;;22.50;19.55;;;;;;;;;;5061488;28;20418;-63
2022/05/25 10:23:00;;;;;;;23.65;19.92;;;;;;;;;;5063462;28;20013;-62
2022/05/25 10:25:29;;;;;;;20.25;18.15;;;;;;;;;;5064711;28;20017;-62
2022/05/25 10:27:57;;;;;;;20.13;17.55;;;;;;;;;;5061999;28;20028;-63
2022/05/25 10:39:13;;;;;;;23.40;16.00;;;;;;;;;;5067115;28;20086;-62
2022/05/25 10:41:40;;;;;;;15.82;14.27;;;;;;;;;;5057703;28;20383;-62
2022/05/25 10:44:10;;;;;;;15.82;14.07;;;;;;;;;;5067373;28;20071;-62
2022/05/25 10:46:38;;;;;;;16.80;14.17;;;;;;;;;;5048897;28;20147;-62
2022/05/25 10:49:07;;;;;;;16.15;13.07;;;;;;;;;;5052226;28;20374;-62
2022/05/25 10:51:59;;;;;;;15.35;13.82;;;;;;;;;;5052257;28;20025;-62
2022/05/25 10:57:29;;;;;;;12.32;10.30;;;;;;;;;;5061525;28;20040;-63
2022/05/25 10:59:55;;;;;;;11.13;9.90;;;;;;;;;;5052347;28;20028;-62
2022/05/25 11:02:33;;;;;;;12.32;9.35;;;;;;;;;;5061596;28;20028;-62
2022/05/25 11:05:23;;;;;;;13.95;10.63;;;;;;;;;;5052008;28;20017;-62
2022/05/25 11:07:50;;;;;;;11.63;9.73;;;;;;;;;;5044955;28;20057;-62
2022/05/25 11:10:35;;;;;;;39.63;10.68;;;;;;;;;;5051903;28;20124;-62
2022/05/25 11:13:09;;;;;;;14.23;8.80;;;;;;;;;;5063988;28;20026;-63
2022/05/25 11:15:59;;;;;;;14.75;8.43;;;;;;;;;;5051865;28;20063;-63
2022/05/25 11:18:43;;;;;;;11.40;6.40;;;;;;;;;;5068294;28;20032;-62
2022/05/25 11:21:17;;;;;;;12.63;6.70;;;;;;;;;;5070448;28;20025;-62
2022/05/25 11:23:53;;;;;;;11.35;5.45;;;;;;;;;;5046344;28;20112;-62
2022/05/25 11:26:41;;;;;;;8.35;5.30;;;;;;;;;;5051408;28;20045;-62
2022/05/25 11:29:18;;;;;;;10.77;4.30;;;;;;;;;;5062667;28;20368;-63
2022/05/25 11:31:52;;;;;;;11.95;4.30;;;;;;;;;;5052197;28;20037;-63
2022/05/25 11:34:37;;;;;;;17.17;4.28;;;;;;;;;;5062136;28;20040;-64
2022/05/25 11:37:03;;;;;;;14.43;3.35;;;;;;;;;;5052821;28;20074;-63
2022/05/25 11:39:44;;;;;;;16.50;3.42;;;;;;;;;;5065308;28;20021;-63
2022/05/25 11:42:29;;;;;;;8.05;2.80;;;;;;;;;;5070468;28;20035;-63
2022/05/25 11:45:13;;;;;;;8.65;3.15;;;;;;;;;;5060218;28;20023;-63
2022/05/25 11:47:58;;;;;;;11.35;2.47;;;;;;;;;;5069032;28;20471;-64
2022/05/25 11:50:24;;;;;;;5.47;2.50;;;;;;;;;;5061334;28;20021;-63
2022/05/25 11:52:57;;;;;;;9.07;2.15;;;;;;;;;;5068239;28;20029;-63
2022/05/25 11:55:23;;;;;;;23.10;3.22;;;;;;;;;;5060202;28;20478;-63
2022/05/25 11:57:50;;;;;;;29.83;3.30;;;;;;;;;;5069714;28;20043;-63
2022/05/25 12:00:29;;;;;;;15.43;2.95;;;;;;;;;;5059451;28;20035;-63
2022/05/25 12:02:59;;;;;;;7.35;1.80;;;;;;;;;;5069390;28;20360;-63
2022/05/25 12:05:29;;;;;;;8.05;2.00;;;;;;;;;;5064626;28;20104;-63
2022/05/25 12:08:14;;;;;;;9.73;2.05;;;;;;;;;;5051593;28;20033;-63
2022/05/25 12:10:41;;;;;;;7.43;1.75;;;;;;;;;;5061324;28;20423;-63
2022/05/25 12:13:10;;;;;;;21.45;3.13;;;;;;;;;;5051486;28;20647;-64
2022/05/25 12:15:52;;;;;;;17.55;2.40;;;;;;;;;;5061851;28;20051;-63
2022/05/25 12:18:26;;;;;;;8.38;2.63;;;;;;;;;;5060178;28;20028;-64
2022/05/25 12:21:15;;;;;;;9.52;2.05;;;;;;;;;;5062230;28;20039;-64
2022/05/25 12:23:43;;;;;;;8.80;1.75;;;;;;;;;;5043318;28;20155;-64
2022/05/25 12:26:15;;;;;;;4.55;1.73;;;;;;;;;;5061525;28;20029;-63
2022/05/25 12:28:43;;;;;;;9.70;2.13;;;;;;;;;;5051142;28;20494;-63
2022/05/25 12:31:11;;;;;;;5.10;2.15;;;;;;;;;;5061940;28;20364;-63
2022/05/25 12:33:38;;;;;;;7.25;2.10;;;;;;;;;;5050744;28;20036;-63
2022/05/25 12:36:08;;;;;;;7.35;2.45;;;;;;;;;;5068747;28;20068;-64
2022/05/25 12:38:35;;;;;;;3.35;1.42;;;;;;;;;;5069875;28;20062;-63
2022/05/25 12:41:21;;;;;;;6.88;1.70;;;;;;;;;;5057412;28;20028;-64
2022/05/25 12:43:47;;;;;;;4.35;1.60;;;;;;;;;;5070266;28;20465;-63
2022/05/25 12:49:02;;;;;;;10.32;1.80;;;;;;;;;;5070482;28;20105;-63
2022/05/25 12:51:36;;;;;;;6.95;1.55;;;;;;;;;;5057053;28;20108;-63
2022/05/25 12:54:07;;;;;;;4.88;1.52;;;;;;;;;;5069919;28;20483;-63
2022/05/25 12:56:35;;;;;;;5.97;1.85;;;;;;;;;;5059323;28;20070;-63
2022/05/25 12:59:06;;;;;;;4.78;2.20;;;;;;;;;;5069340;28;20025;-63
2022/05/25 13:01:37;;;;;;;9.65;2.20;;;;;;;;;;5065274;28;20034;-64
2022/05/25 13:04:15;;;;;;;6.50;1.80;;;;;;;;;;5065411;28;20025;-64
2022/05/25 13:06:44;;;;;;;7.50;1.73;;;;;;;;;;5064924;28;20032;-63
2022/05/25 13:09:10;;;;;;;7.30;1.30;;;;;;;;;;5049248;28;20489;-63
2022/05/25 13:11:42;;;;;;;13.27;1.60;;;;;;;;;;5052253;28;20039;-65
2022/05/25 13:14:17;;;;;;;4.40;1.27;;;;;;;;;;5067909;28;20047;-65
2022/05/25 13:16:47;;;;;;;10.45;1.85;;;;;;;;;;5066691;28;20029;-64
2022/05/25 13:19:16;;;;;;;6.15;1.80;;;;;;;;;;5067201;28;20028;-65
2022/05/25 13:21:43;;;;;;;5.07;1.50;;;;;;;;;;5067363;28;20058;-64
2022/05/25 13:24:25;;;;;;;5.63;1.40;;;;;;;;;;5058457;28;20513;-65
2022/05/25 13:27:10;;;;;;;6.63;1.65;;;;;;;;;;5063043;28;20123;-65
2022/05/25 13:29:36;;;;;;;7.43;1.35;;;;;;;;;;5062016;28;20142;-65
2022/05/25 13:32:08;;;;;;;7.57;1.50;;;;;;;;;;5039486;28;20020;-65
2022/05/25 13:34:34;;;;;;;10.43;2.03;;;;;;;;;;5057032;28;20078;-65
2022/05/25 13:37:05;;;;;;;10.68;1.55;;;;;;;;;;5058078;28;20132;-65
2022/05/25 13:39:32;;;;;;;16.67;2.05;;;;;;;;;;5056824;28;20021;-64
2022/05/25 13:42:18;;;;;;;9.30;2.85;;;;;;;;;;5061256;28;20708;-65
2022/05/25 13:44:44;;;;;;;7.05;1.67;;;;;;;;;;5063853;28;20029;-65
2022/05/25 13:47:16;;;;;;;7.65;1.70;;;;;;;;;;5057597;28;20037;-65
2022/05/25 13:49:46;;;;;;;4.07;1.27;;;;;;;;;;5062469;28;20040;-65
2022/05/25 13:52:21;;;;;;;17.10;1.73;;;;;;;;;;5059933;28;20056;-66
2022/05/25 13:54:51;;;;;;;7.10;1.17;;;;;;;;;;5061484;28;20295;-66
2022/05/25 13:57:29;;;;;;;11.50;1.45;;;;;;;;;;5063856;28;20598;-65
2022/05/25 13:59:55;;;;;;;8.65;1.08;;;;;;;;;;5063660;28;20016;-65
2022/05/25 14:02:24;;;;;;;7.00;1.20;;;;;;;;;;5068598;28;20111;-65
2022/05/25 14:04:51;;;;;;;10.05;1.10;;;;;;;;;;5069191;28;20068;-65
2022/05/25 14:07:31;;;;;;;7.30;1.17;;;;;;;;;;5066369;28;20160;-65
2022/05/25 14:12:46;;;;;;;8.75;2.13;;;;;;;;;;5065085;28;20079;-65
2022/05/25 14:15:17;;;;;;;12.10;1.65;;;;;;;;;;5075450;28;20032;-65
2022/05/25 14:17:53;;;;;;;7.88;1.50;;;;;;;;;;5067694;28;20111;-65
2022/05/25 14:20:21;;;;;;;9.55;1.40;;;;;;;;;;5058903;28;20115;-65
2022/05/25 14:22:47;;;;;;;7.40;1.08;;;;;;;;;;5066024;28;20108;-65
2022/05/25 14:25:15;;;;;;;7.25;1.10;;;;;;;;;;5062495;28;20028;-65
2022/05/25 14:27:42;;;;;;;9.57;1.52;;;;;;;;;;5068917;28;20055;-65
2022/05/25 14:30:24;;;;;;;7.57;1.58;;;;;;;;;;5069174;28;20021;-66
2022/05/25 14:33:01;;;;;;;15.65;1.63;;;;;;;;;;5060520;28;20116;-66
2022/05/25 14:35:29;;;;;;;34.95;3.10;;;;;;;;;;5063735;28;20068;-66
2022/05/25 14:38:02;;;;;;;30.33;2.05;;;;;;;;;;5062621;28;20025;-66
2022/05/25 14:40:30;;;;;;;37.10;3.15;;;;;;;;;;5062677;28;20497;-64
2022/05/25 14:43:05;;;;;;;31.88;2.72;;;;;;;;;;5071817;28;20021;-64
2022/05/25 14:45:32;;;;;;;20.90;2.35;;;;;;;;;;5067955;28;20025;-66
2022/05/25 14:48:05;;;;;;;18.48;2.40;;;;;;;;;;5063859;28;20801;-64
2022/05/25 14:50:33;;;;;;;27.48;2.70;;;;;;;;;;5068268;28;20099;-64
2022/05/25 14:53:02;;;;;;;16.38;2.28;;;;;;;;;;5072216;28;20111;-65
2022/05/25 14:55:28;;;;;;;16.15;1.77;;;;;;;;;;5059990;28;20442;-64
2022/05/25 14:58:09;;;;;;;18.65;2.75;;;;;;;;;;5072451;28;20123;-66
2022/05/25 15:00:37;;;;;;;11.45;2.08;;;;;;;;;;5059239;28;20025;-65
2022/05/25 15:03:03;;;;;;;27.05;3.35;;;;;;;;;;5071481;28;20033;-65
2022/05/25 15:05:40;;;;;;;23.40;2.60;;;;;;;;;;5071118;28;20025;-64
2022/05/25 15:08:19;;;;;;;16.58;1.83;;;;;;;;;;5051965;28;20040;-64
2022/05/25 15:10:45;;;;;;;20.85;2.58;;;;;;;;;;5063238;28;20028;-64
2022/05/25 15:13:22;;;;;;;15.55;1.95;;;;;;;;;;5054842;28;20057;-64
2022/05/25 15:18:34;;;;;;;25.90;3.85;;;;;;;;;;5060220;28;20032;-64
2022/05/25 15:21:15;;;;;;;31.17;3.33;;;;;;;;;;5059116;28;20114;-64
2022/05/25 15:23:44;;;;;;;18.25;2.10;;;;;;;;;;5061779;28;20024;-64
2022/05/25 15:26:11;;;;;;;19.42;2.85;;;;;;;;;;5061104;28;20115;-64
2022/05/25 15:28:37;;;;;;;12.98;1.85;;;;;;;;;;5063851;28;20062;-64